Time;durP1;ratioP1;P1;durP2;ratioP2;P2;SDS_P1;SDS_P2;PMS_P1;PMS_P2;Temp;Humidity;BMP_temperature;BMP_pressure;BME280_temperature;BME280_humidity;BME280_pressure;Samples;Min_cycle;Max_cycle;Signal;HPM_P1;HPM_P2
2021/01/30 00:01:53;;;;;;;6.55;1.95;;;19.80;46.70;;;;;;5010057;28;20140;-38
2021/01/30 00:04:20;;;;;;;7.50;2.17;;;19.80;46.70;;;;;;5012025;28;20049;-39
2021/01/30 00:06:51;;;;;;;6.30;1.73;;;19.80;46.70;;;;;;5011117;28;20123;-38
2021/01/30 00:09:19;;;;;;;8.65;1.90;;;19.80;46.70;;;;;;5011491;28;20049;-39
2021/01/30 00:11:55;;;;;;;6.40;2.22;;;19.80;46.70;;;;;;5010379;28;20139;-38
2021/01/30 00:14:28;;;;;;;10.60;2.03;;;19.80;46.70;;;;;;5011261;28;20100;-39
2021/01/30 00:16:55;;;;;;;13.23;2.53;;;19.80;46.70;;;;;;5011455;28;20046;-39
2021/01/30 00:19:22;;;;;;;6.63;1.85;;;19.80;46.70;;;;;;5011305;28;20129;-39
2021/01/30 00:22:09;;;;;;;8.90;2.20;;;19.80;46.70;;;;;;5011105;28;20088;-39
2021/01/30 00:24:42;;;;;;;5.72;2.08;;;19.80;46.70;;;;;;5010062;28;20046;-39
2021/01/30 00:27:13;;;;;;;9.63;2.10;;;19.80;46.70;;;;;;5011073;28;20104;-38
2021/01/30 00:29:40;;;;;;;8.70;2.50;;;19.80;46.70;;;;;;5010214;28;20108;-39
2021/01/30 00:32:08;;;;;;;4.70;1.67;;;19.80;46.70;;;;;;5009833;28;20045;-39
2021/01/30 00:34:37;;;;;;;6.65;2.22;;;19.80;46.70;;;;;;5011921;28;20049;-39
2021/01/30 00:37:16;;;;;;;8.63;1.90;;;19.80;46.70;;;;;;5011551;28;20081;-39
2021/01/30 00:39:43;;;;;;;6.70;1.98;;;19.80;46.70;;;;;;5010705;28;20399;-39
2021/01/30 00:42:12;;;;;;;4.82;1.80;;;19.80;46.70;;;;;;5009962;28;20446;-39
2021/01/30 00:44:39;;;;;;;9.27;1.70;;;19.80;46.70;;;;;;5012205;28;20108;-39
2021/01/30 00:47:07;;;;;;;5.38;1.85;;;19.70;46.70;;;;;;5009773;28;20046;-39
2021/01/30 00:49:34;;;;;;;7.93;2.13;;;19.70;46.70;;;;;;5011777;28;20050;-38
2021/01/30 00:52:01;;;;;;;8.93;2.50;;;19.80;46.70;;;;;;5012195;28;20452;-39
2021/01/30 00:54:28;;;;;;;7.05;2.00;;;19.70;46.70;;;;;;5010321;28;20490;-39
2021/01/30 00:56:56;;;;;;;8.60;2.00;;;19.70;46.60;;;;;;5011176;28;20116;-39
2021/01/30 00:59:23;;;;;;;8.02;1.80;;;19.70;46.60;;;;;;5011775;28;20038;-38
2021/01/30 01:01:50;;;;;;;4.38;1.67;;;19.80;46.80;;;;;;4993817;28;20089;-38
2021/01/30 01:04:20;;;;;;;6.72;1.90;;;19.70;46.60;;;;;;5011235;28;20072;-39
2021/01/30 01:06:48;;;;;;;6.28;1.83;;;19.70;46.60;;;;;;5011884;28;20046;-39
2021/01/30 01:09:15;;;;;;;8.73;1.90;;;19.70;46.60;;;;;;5010212;28;20096;-39
2021/01/30 01:11:44;;;;;;;8.25;1.73;;;19.70;46.60;;;;;;5010650;28;20133;-39
2021/01/30 01:14:11;;;;;;;7.40;2.40;;;19.70;46.70;;;;;;5012027;28;20081;-39
2021/01/30 01:16:38;;;;;;;3.88;1.88;;;19.70;46.60;;;;;;5010427;28;20509;-38
2021/01/30 01:19:06;;;;;;;7.03;2.05;;;19.80;46.70;;;;;;5010847;28;20053;-39
2021/01/30 01:21:33;;;;;;;4.72;1.70;;;19.70;46.70;;;;;;5010362;28;20477;-39
2021/01/30 01:24:00;;;;;;;4.45;1.98;;;19.70;46.60;;;;;;5009220;28;20149;-39
2021/01/30 01:26:27;;;;;;;8.45;2.20;;;19.70;46.60;;;;;;5008832;28;20053;-38
2021/01/30 01:28:53;;;;;;;6.72;1.90;;;19.70;46.60;;;;;;5011077;28;20132;-38
2021/01/30 01:31:22;;;;;;;4.57;1.63;;;19.70;46.60;;;;;;5011139;28;20138;-39
2021/01/30 01:33:49;;;;;;;6.63;1.70;;;19.70;46.60;;;;;;5010754;28;20078;-39
2021/01/30 01:36:19;;;;;;;4.85;1.80;;;19.70;46.60;;;;;;5010193;28;20050;-39
2021/01/30 01:38:45;;;;;;;3.78;1.88;;;19.70;46.60;;;;;;5010190;28;20057;-39
2021/01/30 01:41:13;;;;;;;3.58;1.48;;;19.70;46.60;;;;;;5025498;28;20461;-39
2021/01/30 01:43:40;;;;;;;5.15;1.70;;;19.70;46.60;;;;;;5010210;28;20132;-39
2021/01/30 01:46:26;;;;;;;4.32;1.50;;;19.70;46.60;;;;;;5009291;28;20472;-39
2021/01/30 01:49:11;;;;;;;5.25;1.50;;;19.70;46.60;;;;;;5010421;28;20064;-38
2021/01/30 01:51:41;;;;;;;3.13;1.77;;;19.70;46.60;;;;;;5011277;28;20128;-39
2021/01/30 01:54:16;;;;;;;6.57;1.70;;;19.70;46.60;;;;;;5026574;28;20472;-38
2021/01/30 01:56:44;;;;;;;5.13;1.80;;;19.70;46.60;;;;;;5011405;28;20050;-38
2021/01/30 01:59:15;;;;;;;7.13;1.70;;;19.70;46.60;;;;;;5010643;28;20042;-39
2021/01/30 02:01:42;;;;;;;4.38;1.92;;;19.70;46.60;;;;;;5009980;28;20050;-39
2021/01/30 02:04:12;;;;;;;6.65;1.77;;;19.70;46.60;;;;;;5010286;28;20588;-39
2021/01/30 02:06:43;;;;;;;7.05;1.58;;;19.70;46.60;;;;;;4994958;28;20197;-39
2021/01/30 02:09:14;;;;;;;4.97;1.88;;;19.70;46.60;;;;;;5011769;28;20053;-39
2021/01/30 02:11:40;;;;;;;3.22;1.85;;;19.70;46.60;;;;;;5011170;28;20053;-39
2021/01/30 02:14:09;;;;;;;5.65;1.77;;;19.70;46.60;;;;;;5024958;28;20042;-38
2021/01/30 02:16:44;;;;;;;4.30;1.60;;;19.70;46.60;;;;;;5010287;28;20120;-38
2021/01/30 02:19:26;;;;;;;4.95;1.70;;;19.70;46.60;;;;;;5010142;28;20486;-39
2021/01/30 02:22:08;;;;;;;5.85;2.00;;;19.70;46.60;;;;;;5025497;28;20131;-39
2021/01/30 02:24:52;;;;;;;4.80;1.65;;;19.70;46.60;;;;;;5012248;28;20100;-39
2021/01/30 02:27:43;;;;;;;4.95;1.90;;;19.70;46.60;;;;;;5013443;28;20064;-39
2021/01/30 02:30:51;;;;;;;2.95;1.70;;;19.70;46.60;;;;;;5013245;28;20104;-38
2021/01/30 02:33:48;;;;;;;6.88;1.85;;;19.70;46.60;;;;;;5014668;28;20096;-40
2021/01/30 02:36:39;;;;;;;6.40;1.50;;;19.70;46.60;;;;;;5013534;28;20556;-39
2021/01/30 02:39:16;;;;;;;5.65;1.80;;;19.70;46.60;;;;;;4996477;28;20565;-39
2021/01/30 02:41:54;;;;;;;4.55;1.60;;;19.70;46.70;;;;;;5012428;28;20133;-39
2021/01/30 02:44:23;;;;;;;3.95;1.35;;;19.70;46.70;;;;;;5013646;28;20050;-39
2021/01/30 02:46:54;;;;;;;5.72;1.45;;;19.70;46.60;;;;;;5014713;28;20099;-38
2021/01/30 02:49:36;;;;;;;3.15;1.50;;;19.70;46.60;;;;;;5014198;28;20050;-39
2021/01/30 02:52:10;;;;;;;4.97;1.33;;;19.70;46.60;;;;;;5013515;28;20049;-39
2021/01/30 02:54:38;;;;;;;5.25;1.98;;;19.70;46.60;;;;;;5014195;28;20049;-39
2021/01/30 02:57:08;;;;;;;6.40;1.48;;;19.70;46.60;;;;;;5014323;28;20054;-39
2021/01/30 02:59:40;;;;;;;7.53;2.08;;;19.70;46.60;;;;;;5013039;28;20408;-39
2021/01/30 03:02:07;;;;;;;3.42;1.35;;;19.70;46.60;;;;;;5014122;28;20046;-39
2021/01/30 03:04:34;;;;;;;5.68;1.80;;;19.70;46.60;;;;;;5014040;28;20456;-39
2021/01/30 03:07:26;;;;;;;5.88;1.50;;;19.70;46.60;;;;;;5012868;28;20046;-39
2021/01/30 03:10:03;;;;;;;5.70;1.60;;;19.70;46.60;;;;;;5012880;28;20100;-40
2021/01/30 03:12:51;;;;;;;4.45;1.50;;;19.70;46.60;;;;;;5011092;28;20494;-39
2021/01/30 03:15:33;;;;;;;3.13;1.42;;;19.70;46.60;;;;;;5012522;28;20077;-39
2021/01/30 03:18:03;;;;;;;6.82;1.52;;;19.70;46.60;;;;;;5011271;28;20050;-39
2021/01/30 03:20:33;;;;;;;5.22;1.58;;;19.70;46.60;;;;;;5012299;28;20042;-39
2021/01/30 03:23:01;;;;;;;6.80;1.80;;;19.70;46.60;;;;;;5012544;28;20073;-39
2021/01/30 03:25:30;;;;;;;4.90;1.50;;;19.70;46.60;;;;;;5011318;28;20104;-39
2021/01/30 03:28:00;;;;;;;5.15;1.50;;;19.70;46.60;;;;;;5010794;28;20058;-39
2021/01/30 03:30:31;;;;;;;4.03;1.60;;;19.70;46.60;;;;;;5011902;28;20046;-39
2021/01/30 03:33:01;;;;;;;5.60;1.83;;;19.70;46.60;;;;;;5011230;28;20046;-39
2021/01/30 03:35:28;;;;;;;7.68;1.52;;;19.70;46.60;;;;;;5011204;28;20405;-39
2021/01/30 03:37:54;;;;;;;3.63;1.42;;;19.70;46.60;;;;;;5011613;28;20054;-39
2021/01/30 03:40:22;;;;;;;4.68;1.67;;;19.70;46.60;;;;;;5012134;28;20049;-39
2021/01/30 03:42:49;;;;;;;5.72;1.92;;;19.70;46.60;;;;;;5027224;28;20104;-39
2021/01/30 03:45:21;;;;;;;5.53;1.58;;;19.70;46.60;;;;;;5012134;28;20464;-39
2021/01/30 03:47:48;;;;;;;3.05;1.77;;;19.70;46.60;;;;;;5012028;28;20050;-39
2021/01/30 03:50:17;;;;;;;5.20;1.80;;;19.70;46.60;;;;;;5012116;28;20049;-39
2021/01/30 03:52:44;;;;;;;5.80;1.52;;;19.70;46.60;;;;;;5012691;28;20046;-39
2021/01/30 03:55:11;;;;;;;4.30;1.83;;;19.70;46.60;;;;;;5011971;28;20406;-39
2021/01/30 03:57:38;;;;;;;6.88;1.58;;;19.70;46.60;;;;;;5013092;28;20077;-39
2021/01/30 04:00:09;;;;;;;3.92;1.27;;;19.70;46.60;;;;;;5011735;28;20133;-39
2021/01/30 04:02:36;;;;;;;3.92;1.73;;;19.70;46.60;;;;;;5013042;28;20056;-39
2021/01/30 04:05:05;;;;;;;4.45;1.60;;;19.70;46.60;;;;;;5012402;28;20054;-39
2021/01/30 04:07:31;;;;;;;3.33;1.48;;;19.70;46.50;;;;;;5011834;28;20077;-39
2021/01/30 04:09:58;;;;;;;4.22;1.20;;;19.70;46.60;;;;;;5011527;28;20089;-39
2021/01/30 04:12:25;;;;;;;5.85;1.30;;;19.70;46.60;;;;;;5027488;28;20046;-39
2021/01/30 04:14:52;;;;;;;3.03;1.30;;;19.70;46.50;;;;;;5011871;28;20042;-39
2021/01/30 04:17:18;;;;;;;4.25;1.38;;;19.70;46.50;;;;;;5012709;28;20104;-39
2021/01/30 04:19:45;;;;;;;2.65;1.45;;;19.70;46.50;;;;;;5011509;28;20042;-39
2021/01/30 04:22:12;;;;;;;5.22;1.60;;;19.70;46.60;;;;;;5011213;28;20494;-39
2021/01/30 04:24:38;;;;;;;2.78;1.30;;;19.70;46.50;;;;;;5009640;28;20046;-39
2021/01/30 04:27:05;;;;;;;3.72;1.58;;;19.60;46.40;;;;;;5011255;28;20094;-39
2021/01/30 04:29:31;;;;;;;3.53;1.50;;;19.70;46.60;;;;;;5012961;28;20056;-39
2021/01/30 04:31:59;;;;;;;3.53;1.35;;;19.70;46.50;;;;;;5011519;28;20041;-39
2021/01/30 04:34:25;;;;;;;4.30;1.40;;;19.70;46.50;;;;;;5011081;28;20628;-39
2021/01/30 04:36:52;;;;;;;3.78;1.48;;;19.70;46.50;;;;;;5011087;28;20046;-39
2021/01/30 04:39:18;;;;;;;6.28;1.73;;;19.70;46.50;;;;;;5012060;28;20125;-39
2021/01/30 04:41:55;;;;;;;4.40;1.48;;;19.70;46.50;;;;;;5009631;28;20045;-39
2021/01/30 04:44:33;;;;;;;3.83;1.45;;;19.70;46.50;;;;;;5011385;28;20113;-39
2021/01/30 04:47:29;;;;;;;3.35;1.60;;;19.70;46.50;;;;;;5012149;28;20053;-39
2021/01/30 04:50:18;;;;;;;4.30;1.73;;;19.70;46.50;;;;;;5010894;28;20088;-39
2021/01/30 04:52:48;;;;;;;3.85;1.98;;;19.70;46.50;;;;;;5010982;28;20081;-39
2021/01/30 04:55:41;;;;;;;3.42;1.50;;;19.70;46.50;;;;;;5011111;28;20049;-39
2021/01/30 04:58:28;;;;;;;3.38;1.20;;;19.70;46.60;;;;;;5009559;28;20133;-39
2021/01/30 05:00:55;;;;;;;4.85;1.42;;;19.70;46.60;;;;;;5010704;28;20042;-39
2021/01/30 05:03:30;;;;;;;2.75;1.58;;;19.60;46.50;;;;;;5009279;28;20056;-39
2021/01/30 05:06:05;;;;;;;4.75;1.17;;;19.60;46.50;;;;;;5010535;28;20057;-39
2021/01/30 05:08:40;;;;;;;3.42;1.70;;;19.60;46.50;;;;;;5010952;28;20131;-39
2021/01/30 05:11:15;;;;;;;6.35;1.95;;;19.60;46.50;;;;;;5010897;28;20140;-39
2021/01/30 05:13:47;;;;;;;3.65;1.20;;;19.70;46.60;;;;;;5011022;28;20046;-39
2021/01/30 05:16:22;;;;;;;6.38;1.50;;;19.60;46.50;;;;;;5010910;28;20088;-39
2021/01/30 05:18:56;;;;;;;4.55;1.48;;;19.60;46.50;;;;;;5010306;28;20137;-39
2021/01/30 05:21:53;;;;;;;4.05;1.42;;;19.60;46.60;;;;;;5010188;28;20041;-40
2021/01/30 05:24:23;;;;;;;2.72;1.35;;;19.60;46.60;;;;;;5006536;28;20378;-39
2021/01/30 05:27:11;;;;;;;5.53;1.50;;;19.60;46.60;;;;;;5010063;28;20182;-39
2021/01/30 05:30:09;;;;;;;3.08;1.50;;;19.60;46.60;;;;;;5010454;28;20041;-39
2021/01/30 05:33:03;;;;;;;5.45;1.75;;;19.60;46.70;;;;;;5010654;28;20046;-39
2021/01/30 05:35:41;;;;;;;5.63;1.20;;;19.60;46.70;;;;;;5011439;28;20049;-39
2021/01/30 05:38:22;;;;;;;2.50;1.38;;;19.60;46.70;;;;;;5010721;28;20281;-39
2021/01/30 05:41:01;;;;;;;4.07;1.30;;;19.60;46.70;;;;;;5009289;28;20038;-39
2021/01/30 05:43:53;;;;;;;4.03;1.60;;;19.60;46.70;;;;;;5011269;28;20045;-39
2021/01/30 05:46:27;;;;;;;3.28;1.25;;;19.60;46.70;;;;;;5009152;28;20128;-39
2021/01/30 05:48:56;;;;;;;2.63;1.40;;;19.60;47.30;;;;;;5010253;28;20100;-39
2021/01/30 05:51:26;;;;;;;4.03;1.48;;;19.60;46.70;;;;;;5024145;28;20053;-39
2021/01/30 05:53:52;;;;;;;2.22;1.13;;;19.60;46.70;;;;;;5009253;28;20089;-39
2021/01/30 05:56:19;;;;;;;3.17;1.27;;;19.60;46.70;;;;;;5011486;28;20108;-39
2021/01/30 05:58:47;;;;;;;4.07;1.45;;;19.60;46.70;;;;;;5013488;28;20045;-39
2021/01/30 06:01:28;;;;;;;3.70;1.60;;;19.60;46.70;;;;;;5015574;28;20123;-39
2021/01/30 06:04:01;;;;;;;3.53;1.50;;;19.60;46.70;;;;;;5015104;28;20050;-39
2021/01/30 06:06:34;;;;;;;3.20;1.17;;;19.60;46.70;;;;;;5014532;28;20402;-39
2021/01/30 06:09:06;;;;;;;3.25;1.40;;;19.60;46.80;;;;;;5029145;28;20081;-39
2021/01/30 06:11:48;;;;;;;3.22;1.67;;;19.60;46.70;;;;;;5014906;28;20119;-39
2021/01/30 06:14:50;;;;;;;2.67;1.10;;;19.60;46.80;;;;;;5013347;28;20559;-39
2021/01/30 06:17:37;;;;;;;2.63;1.23;;;19.60;46.80;;;;;;4992171;28;20087;-39
2021/01/30 06:20:25;;;;;;;5.15;1.50;;;19.60;46.80;;;;;;4992764;28;20046;-39
2021/01/30 06:23:05;;;;;;;3.28;1.30;;;19.60;46.80;;;;;;4993325;28;20077;-40
2021/01/30 06:25:43;;;;;;;3.33;1.25;;;19.60;46.80;;;;;;4991087;28;20099;-40
2021/01/30 06:28:29;;;;;;;2.40;1.17;;;19.60;46.80;;;;;;4993060;28;20137;-39
2021/01/30 06:31:28;;;;;;;6.63;1.60;;;19.60;46.80;;;;;;4991825;28;20050;-39
2021/01/30 06:34:01;;;;;;;3.42;1.40;;;19.60;46.80;;;;;;4980208;28;20058;-39
2021/01/30 06:36:31;;;;;;;3.88;1.30;;;19.60;46.80;;;;;;4992808;28;20480;-40
2021/01/30 06:39:11;;;;;;;3.38;1.98;;;19.60;46.80;;;;;;4991200;28;20492;-39
2021/01/30 06:41:41;;;;;;;2.45;1.13;;;19.60;46.80;;;;;;4991870;28;20055;-39
2021/01/30 06:44:19;;;;;;;2.08;1.30;;;19.60;46.80;;;;;;4992534;28;20056;-39
2021/01/30 06:47:20;;;;;;;2.65;1.48;;;19.60;46.80;;;;;;4976144;28;20042;-39
2021/01/30 06:49:50;;;;;;;4.80;1.20;;;19.60;46.90;;;;;;4992089;28;20054;-40
2021/01/30 06:52:29;;;;;;;2.35;1.10;;;19.60;46.80;;;;;;5010541;28;20050;-39
2021/01/30 06:55:04;;;;;;;3.40;1.27;;;19.60;46.80;;;;;;5014399;28;20490;-39
2021/01/30 06:57:58;;;;;;;4.38;1.40;;;19.60;47.50;;;;;;5012913;28;20046;-39
2021/01/30 07:00:31;;;;;;;3.55;1.25;;;19.60;46.90;;;;;;5013381;28;20107;-40
2021/01/30 07:03:19;;;;;;;3.53;1.50;;;19.60;46.90;;;;;;5012921;28;20103;-39
2021/01/30 07:05:53;;;;;;;3.00;1.50;;;19.60;46.90;;;;;;5013114;28;20288;-39
2021/01/30 07:08:47;;;;;;;3.15;1.25;;;19.60;46.90;;;;;;5012785;28;20053;-39
2021/01/30 07:11:35;;;;;;;2.33;1.05;;;19.60;46.90;;;;;;5012149;28;20464;-39
2021/01/30 07:14:20;;;;;;;3.45;1.42;;;19.60;47.00;;;;;;5013271;28;20061;-39
2021/01/30 07:17:11;;;;;;;4.65;1.30;;;19.60;46.90;;;;;;5013432;28;20050;-40
2021/01/30 07:19:50;;;;;;;2.70;1.17;;;19.60;46.90;;;;;;5007929;28;20050;-39
2021/01/30 07:22:53;;;;;;;3.35;1.50;;;19.60;46.90;;;;;;5013078;28;20100;-39
2021/01/30 07:25:26;;;;;;;2.88;1.38;;;19.60;46.90;;;;;;4999613;28;20500;-39
2021/01/30 07:28:04;;;;;;;2.47;1.10;;;19.60;46.90;;;;;;5012299;28;20068;-39
2021/01/30 07:30:48;;;;;;;4.15;1.33;;;19.60;46.90;;;;;;5012593;28;20046;-39
2021/01/30 07:33:23;;;;;;;1.80;1.15;;;19.60;46.90;;;;;;5011548;28;20046;-39
2021/01/30 07:36:04;;;;;;;3.17;1.20;;;19.60;46.90;;;;;;5013325;28;20449;-39
2021/01/30 07:39:02;;;;;;;3.38;1.20;;;19.60;46.90;;;;;;5013016;28;20046;-39
2021/01/30 07:41:49;;;;;;;1.73;1.20;;;19.60;46.90;;;;;;4994259;28;20051;-39
2021/01/30 07:44:35;;;;;;;2.10;1.20;;;19.60;46.90;;;;;;4996299;28;20053;-39
2021/01/30 07:47:13;;;;;;;2.10;1.17;;;19.60;46.90;;;;;;4996713;28;20449;-39
2021/01/30 07:49:45;;;;;;;3.22;1.00;;;19.60;46.90;;;;;;5012340;28;20045;-39
2021/01/30 07:52:25;;;;;;;1.55;0.90;;;19.60;46.90;;;;;;5012629;28;20405;-39
2021/01/30 07:54:54;;;;;;;1.65;1.00;;;19.60;46.90;;;;;;5012173;28;20705;-38
2021/01/30 07:57:39;;;;;;;3.75;1.20;;;19.60;46.90;;;;;;5013202;28;20077;-40
2021/01/30 08:00:17;;;;;;;;;;;19.60;46.90;;;;;;5012545;28;20525;-39
2021/01/30 08:03:25;;;;;;;3.40;1.10;;;19.60;46.90;;;;;;5013203;28;20350;-39
2021/01/30 08:06:16;;;;;;;1.50;0.90;;;19.60;46.90;;;;;;5010938;28;20116;-39
2021/01/30 08:09:18;;;;;;;4.38;1.33;;;19.60;46.90;;;;;;4996741;28;20389;-39
2021/01/30 08:11:52;;;;;;;3.72;1.13;;;19.60;46.90;;;;;;5010678;28;20077;-39
2021/01/30 08:14:34;;;;;;;3.47;1.50;;;19.60;46.90;;;;;;5011334;28;20115;-39
2021/01/30 08:17:37;;;;;;;2.42;1.10;;;19.60;46.90;;;;;;5011555;28;20140;-39
2021/01/30 08:20:16;;;;;;;2.65;1.20;;;19.60;46.90;;;;;;5001980;28;20132;-39
2021/01/30 08:23:05;;;;;;;2.05;1.15;;;19.60;46.90;;;;;;5011392;28;20504;-39
2021/01/30 08:25:44;;;;;;;2.72;1.02;;;19.60;46.90;;;;;;5010465;28;20162;-39
2021/01/30 08:28:38;;;;;;;2.20;1.00;;;19.60;46.90;;;;;;5011361;28;20058;-39
2021/01/30 08:31:05;;;;;;;1.52;0.88;;;19.60;46.90;;;;;;5011425;28;20472;-39
2021/01/30 08:34:02;;;;;;;5.13;1.52;;;19.60;46.90;;;;;;5011196;28;20095;-39
2021/01/30 08:36:38;;;;;;;2.67;0.98;;;19.60;46.90;;;;;;5008201;28;20519;-39
2021/01/30 08:39:22;;;;;;;2.20;1.02;;;19.60;46.90;;;;;;5011047;28;20042;-39
2021/01/30 08:42:17;;;;;;;2.17;1.27;;;19.60;46.90;;;;;;5011045;28;20529;-39
2021/01/30 08:44:57;;;;;;;2.47;1.10;;;19.60;46.90;;;;;;5010966;28;20046;-39
2021/01/30 08:47:33;;;;;;;2.75;1.00;;;19.60;46.90;;;;;;5011226;28;20050;-39
2021/01/30 08:50:09;;;;;;;3.88;1.13;;;19.60;46.90;;;;;;5009526;28;20050;-39
2021/01/30 08:52:54;;;;;;;1.52;0.90;;;19.60;46.90;;;;;;5009247;28;20076;-39
2021/01/30 08:55:32;;;;;;;2.10;0.90;;;19.60;46.90;;;;;;5010633;28;20096;-39
2021/01/30 08:57:59;;;;;;;5.20;1.20;;;19.60;46.90;;;;;;5010849;28;20132;-39
2021/01/30 09:00:26;;;;;;;3.45;1.20;;;19.60;46.90;;;;;;5010676;28;20434;-39
2021/01/30 09:03:06;;;;;;;1.52;0.90;;;19.70;47.00;;;;;;5012039;28;20123;-39
2021/01/30 09:05:33;;;;;;;3.10;1.10;;;19.70;47.00;;;;;;5009293;28;20100;-40
2021/01/30 09:08:22;;;;;;;2.40;1.08;;;19.70;47.00;;;;;;5010789;28;20058;-39
2021/01/30 09:11:18;;;;;;;2.40;0.90;;;19.70;47.00;;;;;;5010620;28;20046;-39
2021/01/30 09:14:23;;;;;;;1.58;0.80;;;19.60;46.90;;;;;;5011803;28;20405;-39
2021/01/30 09:17:01;;;;;;;2.85;1.42;;;19.60;46.90;;;;;;5007772;28;20050;-39
2021/01/30 09:20:05;;;;;;;1.55;1.00;;;19.60;46.90;;;;;;5010477;28;20054;-39
2021/01/30 09:22:35;;;;;;;1.60;0.88;;;19.60;46.90;;;;;;5009236;28;20045;-39
2021/01/30 09:25:20;;;;;;;2.42;1.33;;;19.60;46.90;;;;;;5009502;28;20100;-39
2021/01/30 09:28:05;;;;;;;4.57;1.05;;;19.70;47.00;;;;;;5010023;28;20056;-39
2021/01/30 09:30:53;;;;;;;1.77;0.80;;;19.60;47.00;;;;;;5010269;28;20084;-39
2021/01/30 09:33:31;;;;;;;3.30;1.08;;;19.60;47.00;;;;;;5013641;28;20046;-39
2021/01/30 09:36:22;;;;;;;2.78;1.27;;;19.60;47.00;;;;;;5015566;28;20046;-40
2021/01/30 09:38:51;;;;;;;3.70;1.00;;;19.60;47.00;;;;;;5014442;28;20042;-39
2021/01/30 09:41:44;;;;;;;3.53;1.10;;;19.60;47.00;;;;;;5014548;28;20046;-39
2021/01/30 09:44:19;;;;;;;4.28;1.38;;;19.70;47.10;;;;;;5012794;28;20052;-39
2021/01/30 09:46:58;;;;;;;2.47;0.90;;;19.60;47.00;;;;;;5014223;28;20490;-39
2021/01/30 09:49:31;;;;;;;2.60;1.17;;;19.60;47.00;;;;;;5015568;28;20038;-39
2021/01/30 09:52:00;;;;;;;2.13;1.13;;;19.60;47.00;;;;;;5013819;28;20046;-40
2021/01/30 09:54:28;;;;;;;1.95;0.90;;;19.60;47.00;;;;;;5028193;28;20041;-39
2021/01/30 09:57:15;;;;;;;1.98;0.90;;;19.60;47.00;;;;;;5014079;28;20070;-39
2021/01/30 09:59:42;;;;;;;2.22;1.00;;;19.60;47.00;;;;;;5015292;28;20038;-39
2021/01/30 10:02:23;;;;;;;3.13;1.38;;;19.60;47.00;;;;;;5013733;28;20051;-39
2021/01/30 10:05:07;;;;;;;2.58;1.05;;;19.70;47.10;;;;;;5014656;28;20097;-39
2021/01/30 10:07:34;;;;;;;2.25;1.20;;;19.60;47.00;;;;;;5013277;28;20100;-39
2021/01/30 10:10:03;;;;;;;2.42;0.93;;;19.60;47.00;;;;;;5013265;28;20185;-40
2021/01/30 10:12:33;;;;;;;1.20;0.82;;;19.60;47.10;;;;;;5015370;28;20133;-39
2021/01/30 10:15:01;;;;;;;2.60;0.93;;;19.70;47.10;;;;;;5015103;28;20042;-39
2021/01/30 10:17:44;;;;;;;1.45;1.17;;;19.60;47.00;;;;;;5013872;28;20099;-39
2021/01/30 10:20:16;;;;;;;1.63;0.80;;;19.70;47.10;;;;;;5027923;28;20041;-40
2021/01/30 10:22:47;;;;;;;1.67;0.90;;;19.60;47.00;;;;;;5014904;28;20494;-40
2021/01/30 10:25:26;;;;;;;2.88;1.00;;;19.70;47.10;;;;;;5028365;28;20106;-40
2021/01/30 10:28:11;;;;;;;1.90;0.82;;;19.70;47.20;;;;;;5012325;28;20100;-40
2021/01/30 10:30:38;;;;;;;2.10;1.00;;;19.70;47.10;;;;;;5027335;28;20121;-39
2021/01/30 10:33:12;;;;;;;1.75;1.00;;;19.60;47.10;;;;;;5010856;28;20096;-40
2021/01/30 10:35:39;;;;;;;;;;;19.60;47.10;;;;;;5011104;28;20049;-40
2021/01/30 10:38:13;;;;;;;2.00;1.00;;;19.60;47.10;;;;;;5011849;28;19948;-40
2021/01/30 10:40:47;;;;;;;2.00;0.98;;;19.60;47.10;;;;;;5013446;28;20049;-39
2021/01/30 10:43:22;;;;;;;3.15;1.35;;;19.60;47.10;;;;;;5012081;28;20050;-40
2021/01/30 10:45:58;;;;;;;1.83;1.15;;;19.60;47.10;;;;;;5010946;28;20456;-40
2021/01/30 10:48:29;;;;;;;3.75;0.93;;;19.60;47.10;;;;;;5010612;28;20042;-41
2021/01/30 10:51:31;;;;;;;1.65;0.93;;;19.60;47.10;;;;;;5011387;28;20077;-40
2021/01/30 10:54:15;;;;;;;1.92;0.98;;;19.60;47.10;;;;;;4965776;28;20578;-40
2021/01/30 10:56:42;;;;;;;2.35;0.93;;;19.60;47.10;;;;;;4969614;28;20458;-40
2021/01/30 10:59:25;;;;;;;2.30;1.13;;;19.60;47.10;;;;;;4971338;28;20058;-39
2021/01/30 11:01:52;;;;;;;3.50;1.10;;;19.60;47.20;;;;;;4971296;28;20050;-40
2021/01/30 11:04:27;;;;;;;1.42;0.75;;;19.60;47.20;;;;;;4971446;28;20101;-40
2021/01/30 11:07:00;;;;;;;2.08;0.98;;;19.60;47.20;;;;;;4970360;28;20078;-39
2021/01/30 11:09:32;;;;;;;1.27;0.90;;;19.60;47.20;;;;;;4970331;28;20051;-40
2021/01/30 11:12:15;;;;;;;7.22;1.10;;;19.60;47.20;;;;;;4971648;28;20084;-40
2021/01/30 11:14:43;;;;;;;2.75;0.80;;;19.60;47.30;;;;;;4971730;28;20365;-40
2021/01/30 11:17:35;;;;;;;2.70;0.88;;;19.60;47.30;;;;;;4971141;28;20630;-39
2021/01/30 11:20:04;;;;;;;5.45;1.00;;;19.60;47.40;;;;;;4970540;28;20151;-39
2021/01/30 11:22:30;;;;;;;5.72;1.30;;;19.60;47.30;;;;;;4971646;28;20059;-40
2021/01/30 11:25:09;;;;;;;4.80;1.27;;;19.60;47.40;;;;;;4953490;28;20189;-40
2021/01/30 11:27:46;;;;;;;3.42;0.98;;;19.70;47.50;;;;;;4947354;28;706911;-40
2021/01/30 11:30:15;;;;;;;2.63;0.93;;;19.70;47.50;;;;;;5004596;28;20049;-40
2021/01/30 11:33:09;;;;;;;2.70;0.73;;;19.70;47.50;;;;;;5011243;28;20050;-40
2021/01/30 11:35:39;;;;;;;3.00;1.00;;;19.60;47.50;;;;;;5012966;28;20494;-41
2021/01/30 11:38:11;;;;;;;1.92;0.90;;;19.70;47.60;;;;;;5010304;28;20042;-39
2021/01/30 11:40:39;;;;;;;1.52;0.80;;;19.60;47.50;;;;;;5011877;28;20045;-40
2021/01/30 11:43:07;;;;;;;4.35;0.80;;;19.70;47.70;;;;;;5010639;28;20473;-39
2021/01/30 11:45:33;;;;;;;2.20;0.93;;;19.60;47.60;;;;;;5009674;28;20049;-40
2021/01/30 11:48:00;;;;;;;1.48;1.00;;;19.70;47.70;;;;;;5011949;28;20057;-41
2021/01/30 11:50:27;;;;;;;2.75;1.40;;;19.60;47.70;;;;;;5012811;28;20081;-40
2021/01/30 11:53:09;;;;;;;2.88;0.82;;;19.70;47.70;;;;;;5011807;28;20065;-40
2021/01/30 11:55:36;;;;;;;2.33;1.00;;;19.70;47.80;;;;;;5000226;28;20509;-42
2021/01/30 11:58:03;;;;;;;4.13;1.10;;;19.60;47.70;;;;;;5010730;28;20100;-40
2021/01/30 12:00:30;;;;;;;4.05;1.23;;;19.70;47.80;;;;;;5011878;28;20046;-40
2021/01/30 12:03:00;;;;;;;1.80;0.90;;;19.70;47.90;;;;;;5012576;28;20498;-40
2021/01/30 12:05:28;;;;;;;1.67;1.00;;;19.70;47.90;;;;;;5026296;28;20057;-40
2021/01/30 12:07:55;;;;;;;2.15;0.90;;;19.70;47.90;;;;;;5012895;28;20058;-42
2021/01/30 12:10:22;;;;;;;1.77;0.90;;;19.70;47.90;;;;;;5011446;28;20125;-40
2021/01/30 12:12:49;;;;;;;1.83;1.08;;;19.70;48.00;;;;;;5011274;28;20379;-40
2021/01/30 12:15:16;;;;;;;0.88;0.60;;;19.70;48.00;;;;;;5010955;28;20444;-40
2021/01/30 12:17:45;;;;;;;2.03;0.90;;;19.70;48.00;;;;;;5011194;28;20045;-39
2021/01/30 12:20:19;;;;;;;1.42;0.90;;;19.70;48.00;;;;;;5009657;28;20053;-39
2021/01/30 12:22:46;;;;;;;1.40;0.60;;;19.70;48.10;;;;;;5011091;28;20042;-39
2021/01/30 12:25:14;;;;;;;3.13;1.20;;;19.70;48.00;;;;;;5009594;28;20116;-40
2021/01/30 12:27:47;;;;;;;5.05;1.27;;;19.70;48.00;;;;;;5010786;28;20096;-40
2021/01/30 12:30:14;;;;;;;2.42;0.93;;;19.70;48.20;;;;;;5011633;28;20057;-39
2021/01/30 12:32:41;;;;;;;2.05;0.70;;;19.70;48.10;;;;;;5011508;28;20065;-40
2021/01/30 12:35:08;;;;;;;5.05;1.30;;;19.70;48.20;;;;;;5009850;28;20050;-40
2021/01/30 12:37:35;;;;;;;4.18;1.02;;;19.70;48.20;;;;;;5010588;28;20049;-39
2021/01/30 12:40:03;;;;;;;3.10;0.70;;;19.70;48.20;;;;;;5010849;28;20125;-40
2021/01/30 12:42:30;;;;;;;3.40;1.10;;;19.70;48.20;;;;;;5010754;28;20053;-39
2021/01/30 12:44:57;;;;;;;3.22;1.00;;;19.70;48.20;;;;;;5009689;28;20088;-39
2021/01/30 12:47:25;;;;;;;2.03;0.80;;;19.70;48.40;;;;;;5011144;28;20077;-40
2021/01/30 12:50:06;;;;;;;3.80;0.80;;;19.70;48.60;;;;;;5011112;28;20061;-39
2021/01/30 12:52:35;;;;;;;4.97;1.00;;;19.70;48.50;;;;;;5009227;28;20053;-39
2021/01/30 12:55:01;;;;;;;6.97;1.10;;;19.70;48.40;;;;;;5009963;28;20467;-39
2021/01/30 12:57:28;;;;;;;2.67;1.00;;;19.70;48.50;;;;;;5012191;28;20449;-40
2021/01/30 12:59:55;;;;;;;4.40;1.00;;;19.70;48.50;;;;;;5026933;28;20053;-41
2021/01/30 13:02:22;;;;;;;4.57;0.90;;;19.70;48.50;;;;;;5011798;28;20077;-39
2021/01/30 13:04:49;;;;;;;3.15;1.30;;;19.70;48.50;;;;;;5010939;28;20418;-39
2021/01/30 13:07:15;;;;;;;3.67;1.20;;;19.70;48.50;;;;;;5010768;28;20057;-40
2021/01/30 13:09:42;;;;;;;3.10;1.08;;;19.70;48.50;;;;;;5009229;28;20456;-39
2021/01/30 13:12:10;;;;;;;3.55;1.10;;;19.70;48.50;;;;;;5010359;28;20053;-40
2021/01/30 13:14:40;;;;;;;3.42;0.85;;;19.70;48.50;;;;;;5010720;28;20383;-39
2021/01/30 13:17:07;;;;;;;1.75;0.80;;;19.70;48.50;;;;;;5009212;28;20233;-39
2021/01/30 13:19:36;;;;;;;2.03;0.90;;;19.70;48.50;;;;;;5010976;28;20038;-39
2021/01/30 13:22:03;;;;;;;2.28;0.95;;;19.70;48.50;;;;;;5010769;28;20069;-40
2021/01/30 13:24:29;;;;;;;3.45;0.98;;;19.70;48.50;;;;;;5008480;28;20057;-39
2021/01/30 13:27:03;;;;;;;1.70;0.70;;;19.70;48.50;;;;;;5011308;28;20053;-39
2021/01/30 13:29:32;;;;;;;0.98;0.75;;;19.70;48.50;;;;;;5011152;28;20100;-40